sensor_id;sensor_type;location;lat;lon;timestamp;pressure;altitude;pressure_sealevel;temperature;humidity
59757;BME280;45631;51.962;5.974;2023-03-19T00:01:03;100939.50;;;10.54;100.00
59757;BME280;45631;51.962;5.974;2023-03-19T00:03:32;100942.97;;;10.54;100.00
59757;BME280;45631;51.962;5.974;2023-03-19T00:06:01;100941.50;;;10.50;100.00
59757;BME280;45631;51.962;5.974;2023-03-19T00:08:30;100939.34;;;10.42;100.00
59757;BME280;45631;51.962;5.974;2023-03-19T00:10:58;100945.44;;;10.43;100.00
59757;BME280;45631;51.962;5.974;2023-03-19T00:13:32;100936.03;;;10.39;100.00
59757;BME280;45631;51.962;5.974;2023-03-19T00:16:02;100938.19;;;10.32;100.00
59757;BME280;45631;51.962;5.974;2023-03-19T00:18:31;100937.53;;;10.28;100.00
59757;BME280;45631;51.962;5.974;2023-03-19T00:21:00;100931.41;;;10.28;100.00
59757;BME280;45631;51.962;5.974;2023-03-19T00:23:28;100938.88;;;10.36;100.00
59757;BME280;45631;51.962;5.974;2023-03-19T00:25:57;100935.75;;;10.29;100.00
59757;BME280;45631;51.962;5.974;2023-03-19T00:28:25;100932.91;;;10.32;100.00
59757;BME280;45631;51.962;5.974;2023-03-19T00:30:54;100936.78;;;10.26;100.00
59757;BME280;45631;51.962;5.974;2023-03-19T00:33:24;100926.75;;;10.19;100.00
59757;BME280;45631;51.962;5.974;2023-03-19T00:35:53;100943.56;;;10.16;100.00
59757;BME280;45631;51.962;5.974;2023-03-19T00:38:21;100935.88;;;10.13;100.00
59757;BME280;45631;51.962;5.974;2023-03-19T00:40:50;100938.69;;;10.10;100.00
59757;BME280;45631;51.962;5.974;2023-03-19T00:43:19;100936.81;;;10.12;100.00
59757;BME280;45631;51.962;5.974;2023-03-19T00:45:47;100938.97;;;10.05;100.00
59757;BME280;45631;51.962;5.974;2023-03-19T00:48:16;100945.72;;;10.09;100.00
59757;BME280;45631;51.962;5.974;2023-03-19T00:50:46;100942.44;;;10.06;100.00
59757;BME280;45631;51.962;5.974;2023-03-19T00:53:15;100940.19;;;10.00;100.00
59757;BME280;45631;51.962;5.974;2023-03-19T00:55:43;100937.47;;;10.01;100.00
59757;BME280;45631;51.962;5.974;2023-03-19T00:58:13;100941.78;;;10.02;100.00
59757;BME280;45631;51.962;5.974;2023-03-19T01:00:41;100944.78;;;9.96;100.00
59757;BME280;45631;51.962;5.974;2023-03-19T01:03:10;100942.25;;;9.94;100.00
59757;BME280;45631;51.962;5.974;2023-03-19T01:05:38;100942.91;;;9.98;100.00
59757;BME280;45631;51.962;5.974;2023-03-19T01:08:08;100943.84;;;9.97;100.00
59757;BME280;45631;51.962;5.974;2023-03-19T01:10:37;100944.69;;;9.97;100.00
59757;BME280;45631;51.962;5.974;2023-03-19T01:13:05;100942.72;;;10.01;100.00
59757;BME280;45631;51.962;5.974;2023-03-19T01:15:35;100943.66;;;10.00;100.00
59757;BME280;45631;51.962;5.974;2023-03-19T01:18:04;100944.22;;;9.91;100.00
59757;BME280;45631;51.962;5.974;2023-03-19T01:20:32;100945.22;;;9.88;100.00
59757;BME280;45631;51.962;5.974;2023-03-19T01:23:01;100933.22;;;9.84;100.00
59757;BME280;45631;51.962;5.974;2023-03-19T01:25:32;100937.34;;;9.88;100.00
59757;BME280;45631;51.962;5.974;2023-03-19T01:28:01;100939.69;;;9.78;100.00
59757;BME280;45631;51.962;5.974;2023-03-19T01:30:30;100941.09;;;9.84;100.00
59757;BME280;45631;51.962;5.974;2023-03-19T01:32:58;100934.34;;;9.66;100.00
59757;BME280;45631;51.962;5.974;2023-03-19T01:35:27;100936.97;;;9.66;100.00
59757;BME280;45631;51.962;5.974;2023-03-19T01:37:56;100939.59;;;9.66;100.00
59757;BME280;45631;51.962;5.974;2023-03-19T01:40:24;100939.97;;;9.59;100.00
59757;BME280;45631;51.962;5.974;2023-03-19T01:42:56;100938.53;;;9.54;100.00
59757;BME280;45631;51.962;5.974;2023-03-19T01:45:32;100931.78;;;9.50;100.00
59757;BME280;45631;51.962;5.974;2023-03-19T01:48:02;100928.81;;;9.56;100.00
59757;BME280;45631;51.962;5.974;2023-03-19T01:50:38;100929.84;;;9.53;100.00
59757;BME280;45631;51.962;5.974;2023-03-19T01:53:08;100930.66;;;9.54;100.00
59757;BME280;45631;51.962;5.974;2023-03-19T01:55:39;100919.69;;;9.47;100.00
59757;BME280;45631;51.962;5.974;2023-03-19T01:58:09;100935.44;;;9.47;100.00
59757;BME280;45631;51.962;5.974;2023-03-19T02:00:38;100921.38;;;9.48;100.00
59757;BME280;45631;51.962;5.974;2023-03-19T02:03:06;100924.94;;;9.47;100.00
59757;BME280;45631;51.962;5.974;2023-03-19T02:05:36;100924.59;;;9.53;100.00
59757;BME280;45631;51.962;5.974;2023-03-19T02:08:06;100920.44;;;9.49;100.00
59757;BME280;45631;51.962;5.974;2023-03-19T02:10:36;100923.16;;;9.47;100.00
59757;BME280;45631;51.962;5.974;2023-03-19T02:13:06;100917.16;;;9.45;100.00
59757;BME280;45631;51.962;5.974;2023-03-19T02:15:36;100933.66;;;9.47;100.00
59757;BME280;45631;51.962;5.974;2023-03-19T02:18:05;100935.63;;;9.44;100.00
59757;BME280;45631;51.962;5.974;2023-03-19T02:20:37;100945.19;;;9.45;100.00
59757;BME280;45631;51.962;5.974;2023-03-19T02:23:14;100933.94;;;9.43;100.00
59757;BME280;45631;51.962;5.974;2023-03-19T02:26:02;100935.72;;;9.42;100.00
59757;BME280;45631;51.962;5.974;2023-03-19T02:28:32;100933.25;;;9.39;100.00
59757;BME280;45631;51.962;5.974;2023-03-19T02:31:01;100922.31;;;9.47;100.00
59757;BME280;45631;51.962;5.974;2023-03-19T02:33:30;100928.47;;;9.46;100.00
59757;BME280;45631;51.962;5.974;2023-03-19T02:36:01;100933.00;;;9.44;100.00
59757;BME280;45631;51.962;5.974;2023-03-19T02:38:32;100933.00;;;9.44;100.00
59757;BME280;45631;51.962;5.974;2023-03-19T02:41:04;100940.88;;;9.44;100.00
59757;BME280;45631;51.962;5.974;2023-03-19T02:43:35;100939.75;;;9.48;100.00
59757;BME280;45631;51.962;5.974;2023-03-19T02:46:07;100938.81;;;9.49;100.00
59757;BME280;45631;51.962;5.974;2023-03-19T02:48:37;100933.56;;;9.49;100.00
59757;BME280;45631;51.962;5.974;2023-03-19T02:51:07;100928.22;;;9.51;100.00
59757;BME280;45631;51.962;5.974;2023-03-19T02:53:35;100936.00;;;9.52;100.00
59757;BME280;45631;51.962;5.974;2023-03-19T02:56:06;100940.06;;;9.58;100.00
59757;BME280;45631;51.962;5.974;2023-03-19T02:58:34;100940.34;;;9.53;100.00
59757;BME280;45631;51.962;5.974;2023-03-19T03:01:03;100933.38;;;9.52;100.00
59757;BME280;45631;51.962;5.974;2023-03-19T03:03:32;100946.59;;;9.51;100.00
59757;BME280;45631;51.962;5.974;2023-03-19T03:06:00;100949.44;;;9.62;100.00
59757;BME280;45631;51.962;5.974;2023-03-19T03:08:29;100948.75;;;9.58;100.00
59757;BME280;45631;51.962;5.974;2023-03-19T03:10:57;100946.50;;;9.52;100.00
59757;BME280;45631;51.962;5.974;2023-03-19T03:13:27;100946.31;;;9.55;100.00
59757;BME280;45631;51.962;5.974;2023-03-19T03:15:55;100949.03;;;9.54;100.00
59757;BME280;45631;51.962;5.974;2023-03-19T03:18:25;100955.31;;;9.51;100.00
59757;BME280;45631;51.962;5.974;2023-03-19T03:20:53;100952.69;;;9.51;100.00
59757;BME280;45631;51.962;5.974;2023-03-19T03:23:21;100965.72;;;9.53;100.00
59757;BME280;45631;51.962;5.974;2023-03-19T03:25:50;100960.47;;;9.53;100.00
59757;BME280;45631;51.962;5.974;2023-03-19T03:28:19;100957.03;;;9.52;100.00
59757;BME280;45631;51.962;5.974;2023-03-19T03:30:49;100962.19;;;9.54;100.00
59757;BME280;45631;51.962;5.974;2023-03-19T03:33:18;100960.47;;;9.53;100.00
59757;BME280;45631;51.962;5.974;2023-03-19T03:35:46;100962.06;;;9.55;100.00
59757;BME280;45631;51.962;5.974;2023-03-19T03:38:14;100963.97;;;9.53;100.00
59757;BME280;45631;51.962;5.974;2023-03-19T03:40:44;100956.91;;;9.54;100.00
59757;BME280;45631;51.962;5.974;2023-03-19T03:43:12;100958.81;;;9.52;100.00
59757;BME280;45631;51.962;5.974;2023-03-19T03:45:42;100964.06;;;9.52;100.00
59757;BME280;45631;51.962;5.974;2023-03-19T03:48:13;100963.19;;;9.51;100.00
59757;BME280;45631;51.962;5.974;2023-03-19T03:50:42;100967.63;;;9.51;100.00
59757;BME280;45631;51.962;5.974;2023-03-19T03:53:10;100965.91;;;9.50;100.00
59757;BME280;45631;51.962;5.974;2023-03-19T03:55:39;100966.75;;;9.50;100.00
59757;BME280;45631;51.962;5.974;2023-03-19T03:58:07;100964.34;;;9.61;100.00
59757;BME280;45631;51.962;5.974;2023-03-19T04:00:36;100962.47;;;9.63;100.00
59757;BME280;45631;51.962;5.974;2023-03-19T04:03:05;100972.31;;;9.60;100.00
59757;BME280;45631;51.962;5.974;2023-03-19T04:05:35;100961.88;;;9.58;100.00
59757;BME280;45631;51.962;5.974;2023-03-19T04:08:04;100964.88;;;9.52;100.00
59757;BME280;45631;51.962;5.974;2023-03-19T04:10:33;100975.94;;;9.43;100.00
59757;BME280;45631;51.962;5.974;2023-03-19T04:13:02;100966.94;;;9.47;100.00
59757;BME280;45631;51.962;5.974;2023-03-19T04:15:31;100970.88;;;9.40;100.00
59757;BME280;45631;51.962;5.974;2023-03-19T04:18:00;100966.81;;;9.34;100.00
59757;BME280;45631;51.962;5.974;2023-03-19T04:20:29;100966.72;;;9.36;100.00
59757;BME280;45631;51.962;5.974;2023-03-19T04:22:59;100970.09;;;9.38;100.00
59757;BME280;45631;51.962;5.974;2023-03-19T04:25:28;100967.47;;;9.38;100.00
59757;BME280;45631;51.962;5.974;2023-03-19T04:27:56;100968.50;;;9.35;100.00
59757;BME280;45631;51.962;5.974;2023-03-19T04:30:25;100965.13;;;9.33;100.00
59757;BME280;45631;51.962;5.974;2023-03-19T04:32:53;100971.28;;;9.32;100.00
59757;BME280;45631;51.962;5.974;2023-03-19T04:35:22;100973.69;;;9.37;100.00
59757;BME280;45631;51.962;5.974;2023-03-19T04:37:51;100977.22;;;9.36;100.00
59757;BME280;45631;51.962;5.974;2023-03-19T04:40:21;100980.03;;;9.33;100.00
59757;BME280;45631;51.962;5.974;2023-03-19T04:42:50;100982.66;;;9.33;100.00
59757;BME280;45631;51.962;5.974;2023-03-19T04:45:18;100978.69;;;9.25;100.00
59757;BME280;45631;51.962;5.974;2023-03-19T04:47:47;100984.00;;;9.24;100.00
59757;BME280;45631;51.962;5.974;2023-03-19T04:50:16;100989.16;;;9.25;100.00
59757;BME280;45631;51.962;5.974;2023-03-19T04:52:45;100989.25;;;9.24;100.00
59757;BME280;45631;51.962;5.974;2023-03-19T04:55:13;100981.81;;;9.16;100.00
59757;BME280;45631;51.962;5.974;2023-03-19T04:57:43;100987.25;;;9.13;100.00
59757;BME280;45631;51.962;5.974;2023-03-19T05:00:13;100992.41;;;9.14;100.00
59757;BME280;45631;51.962;5.974;2023-03-19T05:02:42;100990.75;;;9.13;100.00
59757;BME280;45631;51.962;5.974;2023-03-19T05:05:13;100992.16;;;9.19;100.00
59757;BME280;45631;51.962;5.974;2023-03-19T05:07:42;100993.38;;;9.13;100.00
59757;BME280;45631;51.962;5.974;2023-03-19T05:10:11;100997.16;;;9.08;100.00
59757;BME280;45631;51.962;5.974;2023-03-19T05:12:41;100996.41;;;9.06;100.00
59757;BME280;45631;51.962;5.974;2023-03-19T05:15:11;101005.63;;;9.13;100.00
59757;BME280;45631;51.962;5.974;2023-03-19T05:17:40;101005.88;;;9.08;100.00
59757;BME280;45631;51.962;5.974;2023-03-19T05:20:10;101010.22;;;9.09;100.00
59757;BME280;45631;51.962;5.974;2023-03-19T05:22:38;101005.81;;;9.10;100.00
59757;BME280;45631;51.962;5.974;2023-03-19T05:25:07;101013.91;;;9.21;100.00
59757;BME280;45631;51.962;5.974;2023-03-19T05:27:36;101003.84;;;9.13;100.00
59757;BME280;45631;51.962;5.974;2023-03-19T05:30:06;101007.31;;;9.14;100.00
59757;BME280;45631;51.962;5.974;2023-03-19T05:32:36;101012.56;;;9.14;100.00
59757;BME280;45631;51.962;5.974;2023-03-19T05:35:07;101011.53;;;9.17;100.00
59757;BME280;45631;51.962;5.974;2023-03-19T05:37:36;101012.75;;;9.11;100.00
59757;BME280;45631;51.962;5.974;2023-03-19T05:40:05;101010.22;;;9.09;100.00
59757;BME280;45631;51.962;5.974;2023-03-19T05:42:34;101017.31;;;9.07;100.00
59757;BME280;45631;51.962;5.974;2023-03-19T05:45:03;101014.41;;;9.12;100.00
59757;BME280;45631;51.962;5.974;2023-03-19T05:47:31;101013.50;;;9.13;100.00
59757;BME280;45631;51.962;5.974;2023-03-19T05:50:02;101025.41;;;9.19;100.00
59757;BME280;45631;51.962;5.974;2023-03-19T05:52:31;101024.75;;;9.15;100.00
59757;BME280;45631;51.962;5.974;2023-03-19T05:54:59;101035.25;;;9.15;100.00
59757;BME280;45631;51.962;5.974;2023-03-19T05:57:28;101023.91;;;9.14;100.00
59757;BME280;45631;51.962;5.974;2023-03-19T05:59:56;101035.41;;;9.12;100.00
59757;BME280;45631;51.962;5.974;2023-03-19T06:02:25;101039.50;;;9.18;100.00
59757;BME280;45631;51.962;5.974;2023-03-19T06:04:54;101035.41;;;9.12;100.00
59757;BME280;45631;51.962;5.974;2023-03-19T06:07:24;101037.97;;;9.13;100.00
59757;BME280;45631;51.962;5.974;2023-03-19T06:09:52;101042.13;;;9.18;100.00
59757;BME280;45631;51.962;5.974;2023-03-19T06:12:21;101038.72;;;9.16;100.00
59757;BME280;45631;51.962;5.974;2023-03-19T06:14:49;101049.22;;;9.16;100.00
59757;BME280;45631;51.962;5.974;2023-03-19T06:17:18;101054.97;;;9.22;100.00
59757;BME280;45631;51.962;5.974;2023-03-19T06:19:46;101052.59;;;9.18;100.00
59757;BME280;45631;51.962;5.974;2023-03-19T06:22:15;101065.72;;;9.18;100.00
59757;BME280;45631;51.962;5.974;2023-03-19T06:24:44;101067.41;;;9.19;100.00
59757;BME280;45631;51.962;5.974;2023-03-19T06:27:13;101059.38;;;9.22;100.00
59757;BME280;45631;51.962;5.974;2023-03-19T06:29:41;101069.59;;;9.26;100.00
59757;BME280;45631;51.962;5.974;2023-03-19T06:32:10;101067.75;;;9.28;100.00
59757;BME280;45631;51.962;5.974;2023-03-19T06:34:39;101066.88;;;9.28;100.00
59757;BME280;45631;51.962;5.974;2023-03-19T06:37:08;101078.06;;;9.32;100.00
59757;BME280;45631;51.962;5.974;2023-03-19T06:39:36;101083.16;;;9.35;100.00
59757;BME280;45631;51.962;5.974;2023-03-19T06:42:07;101080.34;;;9.38;100.00
59757;BME280;45631;51.962;5.974;2023-03-19T06:44:35;101083.75;;;9.40;100.00
59757;BME280;45631;51.962;5.974;2023-03-19T06:47:07;101085.44;;;9.41;100.00
59757;BME280;45631;51.962;5.974;2023-03-19T06:49:35;101096.69;;;9.43;100.00
59757;BME280;45631;51.962;5.974;2023-03-19T06:52:03;101094.88;;;9.43;100.00
59757;BME280;45631;51.962;5.974;2023-03-19T06:54:32;101094.25;;;9.40;100.00
59757;BME280;45631;51.962;5.974;2023-03-19T06:57:04;101090.41;;;9.45;100.00
59757;BME280;45631;51.962;5.974;2023-03-19T06:59:34;101087.53;;;9.50;100.00
59757;BME280;45631;51.962;5.974;2023-03-19T07:02:02;101094.66;;;9.48;100.00
59757;BME280;45631;51.962;5.974;2023-03-19T07:04:31;101086.69;;;9.50;100.00
59757;BME280;45631;51.962;5.974;2023-03-19T07:06:59;101102.16;;;9.54;100.00
59757;BME280;45631;51.962;5.974;2023-03-19T07:09:28;101106.31;;;9.58;100.00
59757;BME280;45631;51.962;5.974;2023-03-19T07:11:56;101103.53;;;9.61;100.00
59757;BME280;45631;51.962;5.974;2023-03-19T07:14:25;101100.53;;;9.68;100.00
59757;BME280;45631;51.962;5.974;2023-03-19T07:16:55;101113.75;;;9.66;100.00
59757;BME280;45631;51.962;5.974;2023-03-19T07:19:23;101110.78;;;9.72;100.00
59757;BME280;45631;51.962;5.974;2023-03-19T07:21:52;101113.91;;;9.79;100.00
59757;BME280;45631;51.962;5.974;2023-03-19T07:24:20;101114.22;;;9.89;100.00
59757;BME280;45631;51.962;5.974;2023-03-19T07:26:49;101122.22;;;9.87;100.00
59757;BME280;45631;51.962;5.974;2023-03-19T07:29:17;101122.03;;;9.90;100.00
59757;BME280;45631;51.962;5.974;2023-03-19T07:31:46;101127.09;;;9.93;100.00
59757;BME280;45631;51.962;5.974;2023-03-19T07:34:16;101136.00;;;9.91;100.00
59757;BME280;45631;51.962;5.974;2023-03-19T07:36:44;101131.59;;;9.91;100.00
59757;BME280;45631;51.962;5.974;2023-03-19T07:39:13;101132.75;;;10.02;100.00
59757;BME280;45631;51.962;5.974;2023-03-19T07:41:41;101133.41;;;10.05;100.00
59757;BME280;45631;51.962;5.974;2023-03-19T07:44:10;101137.47;;;10.11;100.00
59757;BME280;45631;51.962;5.974;2023-03-19T07:46:39;101134.94;;;10.09;100.00
59757;BME280;45631;51.962;5.974;2023-03-19T07:49:07;101139.38;;;10.23;100.00
59757;BME280;45631;51.962;5.974;2023-03-19T07:51:37;101142.19;;;10.20;100.00
59757;BME280;45631;51.962;5.974;2023-03-19T07:54:06;101144.81;;;10.20;100.00
59757;BME280;45631;51.962;5.974;2023-03-19T07:56:34;101149.88;;;10.23;100.00
59757;BME280;45631;51.962;5.974;2023-03-19T07:59:03;101148.69;;;10.29;100.00
59757;BME280;45631;51.962;5.974;2023-03-19T08:01:32;101149.78;;;10.25;100.00
59757;BME280;45631;51.962;5.974;2023-03-19T08:04:00;101148.97;;;10.24;100.00
59757;BME280;45631;51.962;5.974;2023-03-19T08:06:29;101149.34;;;10.32;100.00
59757;BME280;45631;51.962;5.974;2023-03-19T08:08:58;101151.81;;;10.36;100.00
59757;BME280;45631;51.962;5.974;2023-03-19T08:11:27;101147.16;;;10.41;100.00
59757;BME280;45631;51.962;5.974;2023-03-19T08:13:57;101150.44;;;10.44;100.00
59757;BME280;45631;51.962;5.974;2023-03-19T08:16:25;101149.50;;;10.45;100.00
59757;BME280;45631;51.962;5.974;2023-03-19T08:18:54;101152.59;;;10.38;100.00
59757;BME280;45631;51.962;5.974;2023-03-19T08:21:22;101155.31;;;10.51;100.00
59757;BME280;45631;51.962;5.974;2023-03-19T08:23:52;101164.53;;;10.58;100.00
59757;BME280;45631;51.962;5.974;2023-03-19T08:26:22;101155.81;;;10.72;100.00
59757;BME280;45631;51.962;5.974;2023-03-19T08:28:50;101162.38;;;10.64;100.00
59757;BME280;45631;51.962;5.974;2023-03-19T08:31:18;101168.03;;;10.73;100.00
59757;BME280;45631;51.962;5.974;2023-03-19T08:33:47;101177.50;;;10.75;100.00
59757;BME280;45631;51.962;5.974;2023-03-19T08:36:15;101172.91;;;10.79;100.00
59757;BME280;45631;51.962;5.974;2023-03-19T08:38:44;101170.28;;;10.79;100.00
59757;BME280;45631;51.962;5.974;2023-03-19T08:41:12;101178.56;;;10.87;100.00
59757;BME280;45631;51.962;5.974;2023-03-19T08:43:42;101185.31;;;10.91;100.00
59757;BME280;45631;51.962;5.974;2023-03-19T08:46:11;101193.88;;;10.95;100.00
59757;BME280;45631;51.962;5.974;2023-03-19T08:48:41;101191.91;;;10.98;100.00
59757;BME280;45631;51.962;5.974;2023-03-19T08:51:10;101198.75;;;11.01;100.00
59757;BME280;45631;51.962;5.974;2023-03-19T08:53:38;101190.41;;;11.09;100.00
59757;BME280;45631;51.962;5.974;2023-03-19T08:56:08;101201.66;;;11.25;100.00
59757;BME280;45631;51.962;5.974;2023-03-19T08:58:36;101203.06;;;11.31;100.00
59757;BME280;45631;51.962;5.974;2023-03-19T09:01:09;101203.63;;;11.36;100.00
59757;BME280;45631;51.962;5.974;2023-03-19T09:03:38;101207.38;;;11.46;100.00
59757;BME280;45631;51.962;5.974;2023-03-19T09:06:08;101208.28;;;11.60;100.00
59757;BME280;45631;51.962;5.974;2023-03-19T09:08:38;101208.00;;;11.64;100.00
59757;BME280;45631;51.962;5.974;2023-03-19T09:11:07;101208.28;;;11.87;100.00
59757;BME280;45631;51.962;5.974;2023-03-19T09:13:36;101208.91;;;12.05;100.00
59757;BME280;45631;51.962;5.974;2023-03-19T09:16:07;101218.38;;;12.22;100.00
59757;BME280;45631;51.962;5.974;2023-03-19T09:18:35;101223.97;;;12.30;100.00
59757;BME280;45631;51.962;5.974;2023-03-19T09:21:04;101222.09;;;12.32;100.00
59757;BME280;45631;51.962;5.974;2023-03-19T09:23:33;101219.78;;;12.41;100.00
59757;BME280;45631;51.962;5.974;2023-03-19T09:26:01;101223.06;;;12.44;100.00
59757;BME280;45631;51.962;5.974;2023-03-19T09:28:29;101225.28;;;12.50;100.00
59757;BME280;45631;51.962;5.974;2023-03-19T09:30:58;101226.97;;;12.51;100.00
59757;BME280;45631;51.962;5.974;2023-03-19T09:33:34;101230.78;;;12.60;100.00
59757;BME280;45631;51.962;5.974;2023-03-19T09:36:06;101224.44;;;12.50;100.00
59757;BME280;45631;51.962;5.974;2023-03-19T09:38:35;101227.50;;;12.57;100.00
59757;BME280;45631;51.962;5.974;2023-03-19T09:41:09;101229.75;;;12.63;100.00
59757;BME280;45631;51.962;5.974;2023-03-19T09:43:55;101233.22;;;12.89;100.00
59757;BME280;45631;51.962;5.974;2023-03-19T09:46:30;101233.13;;;13.04;100.00
59757;BME280;45631;51.962;5.974;2023-03-19T09:49:04;101237.44;;;13.43;100.00
59757;BME280;45631;51.962;5.974;2023-03-19T09:51:40;101237.22;;;13.46;100.00
59757;BME280;45631;51.962;5.974;2023-03-19T09:54:24;101236.50;;;13.81;100.00
59757;BME280;45631;51.962;5.974;2023-03-19T09:56:54;101241.47;;;13.97;100.00
59757;BME280;45631;51.962;5.974;2023-03-19T09:59:24;101236.41;;;13.94;100.00
59757;BME280;45631;51.962;5.974;2023-03-19T10:02:00;101240.13;;;14.16;100.00
59757;BME280;45631;51.962;5.974;2023-03-19T10:04:41;101248.19;;;14.39;100.00
59757;BME280;45631;51.962;5.974;2023-03-19T10:07:23;101243.22;;;14.69;100.00
59757;BME280;45631;51.962;5.974;2023-03-19T10:10:07;101245.47;;;14.98;100.00
59757;BME280;45631;51.962;5.974;2023-03-19T10:12:48;101237.63;;;15.19;100.00
59757;BME280;45631;51.962;5.974;2023-03-19T10:15:21;101251.94;;;15.17;100.00
59757;BME280;45631;51.962;5.974;2023-03-19T10:17:56;101247.38;;;15.42;100.00
59757;BME280;45631;51.962;5.974;2023-03-19T10:20:35;101250.47;;;15.58;100.00
59757;BME280;45631;51.962;5.974;2023-03-19T10:23:32;101259.81;;;15.96;100.00
59757;BME280;45631;51.962;5.974;2023-03-19T10:26:04;101257.94;;;15.87;100.00
59757;BME280;45631;51.962;5.974;2023-03-19T10:28:33;101247.97;;;16.12;100.00
59757;BME280;45631;51.962;5.974;2023-03-19T10:34:03;101263.75;;;15.47;100.00
59757;BME280;45631;51.962;5.974;2023-03-19T10:36:37;101266.59;;;15.89;100.00
59757;BME280;45631;51.962;5.974;2023-03-19T10:39:06;101262.28;;;15.77;100.00
59757;BME280;45631;51.962;5.974;2023-03-19T10:41:45;101259.81;;;15.96;100.00
59757;BME280;45631;51.962;5.974;2023-03-19T10:44:27;101264.69;;;15.80;100.00
59757;BME280;45631;51.962;5.974;2023-03-19T10:46:57;101259.63;;;15.88;100.00
59757;BME280;45631;51.962;5.974;2023-03-19T10:49:26;101264.66;;;16.02;100.00
59757;BME280;45631;51.962;5.974;2023-03-19T10:51:57;101263.66;;;16.15;100.00
59757;BME280;45631;51.962;5.974;2023-03-19T10:54:27;101259.75;;;16.19;100.00
59757;BME280;45631;51.962;5.974;2023-03-19T10:56:58;101262.00;;;16.56;100.00
59757;BME280;45631;51.962;5.974;2023-03-19T10:59:36;101261.31;;;16.54;100.00
59757;BME280;45631;51.962;5.974;2023-03-19T11:02:15;101265.91;;;16.94;100.00
59757;BME280;45631;51.962;5.974;2023-03-19T11:04:44;101262.03;;;17.29;100.00
59757;BME280;45631;51.962;5.974;2023-03-19T11:07:18;101258.56;;;17.38;100.00
59757;BME280;45631;51.962;5.974;2023-03-19T11:09:48;101260.78;;;17.33;100.00
59757;BME280;45631;51.962;5.974;2023-03-19T11:12:19;101261.72;;;17.63;100.00
59757;BME280;45631;51.962;5.974;2023-03-19T11:14:50;101266.28;;;17.92;100.00
59757;BME280;45631;51.962;5.974;2023-03-19T11:17:21;101263.50;;;18.03;100.00
59757;BME280;45631;51.962;5.974;2023-03-19T11:19:52;101268.00;;;18.13;100.00
59757;BME280;45631;51.962;5.974;2023-03-19T11:22:24;101267.69;;;18.65;100.00
59757;BME280;45631;51.962;5.974;2023-03-19T11:24:58;101262.59;;;18.81;100.00
59757;BME280;45631;51.962;5.974;2023-03-19T11:27:29;101262.91;;;18.88;100.00
59757;BME280;45631;51.962;5.974;2023-03-19T11:30:00;101256.75;;;19.25;100.00
59757;BME280;45631;51.962;5.974;2023-03-19T11:32:57;101264.03;;;18.95;100.00
59757;BME280;45631;51.962;5.974;2023-03-19T11:35:31;101271.38;;;19.49;100.00
59757;BME280;45631;51.962;5.974;2023-03-19T11:38:09;101263.97;;;19.70;100.00
59757;BME280;45631;51.962;5.974;2023-03-19T11:40:43;101269.94;;;19.82;91.94
59757;BME280;45631;51.962;5.974;2023-03-19T11:43:27;101273.84;;;18.75;97.58
59757;BME280;45631;51.962;5.974;2023-03-19T11:46:08;101270.63;;;18.62;98.32
59757;BME280;45631;51.962;5.974;2023-03-19T11:48:49;101273.69;;;18.86;100.00
59757;BME280;45631;51.962;5.974;2023-03-19T11:51:28;101273.00;;;18.94;99.09
59757;BME280;45631;51.962;5.974;2023-03-19T11:54:04;101264.72;;;18.97;98.60
59757;BME280;45631;51.962;5.974;2023-03-19T11:56:41;101266.84;;;18.74;99.66
59757;BME280;45631;51.962;5.974;2023-03-19T11:59:35;101275.66;;;18.84;100.00
59757;BME280;45631;51.962;5.974;2023-03-19T12:02:20;101269.84;;;19.18;98.54
59757;BME280;45631;51.962;5.974;2023-03-19T12:05:17;101264.66;;;19.07;99.96
59757;BME280;45631;51.962;5.974;2023-03-19T12:07:57;101273.81;;;18.85;100.00
59757;BME280;45631;51.962;5.974;2023-03-19T12:10:44;101281.03;;;18.55;100.00
59757;BME280;45631;51.962;5.974;2023-03-19T12:13:26;101278.63;;;18.62;100.00
59757;BME280;45631;51.962;5.974;2023-03-19T12:16:04;101286.78;;;18.60;100.00
59757;BME280;45631;51.962;5.974;2023-03-19T12:18:53;101277.34;;;18.75;100.00
59757;BME280;45631;51.962;5.974;2023-03-19T12:21:33;101275.81;;;18.73;100.00
59757;BME280;45631;51.962;5.974;2023-03-19T12:24:14;101277.47;;;18.84;100.00
59757;BME280;45631;51.962;5.974;2023-03-19T12:26:55;101280.50;;;19.08;100.00
59757;BME280;45631;51.962;5.974;2023-03-19T12:29:34;101278.47;;;18.92;100.00
59757;BME280;45631;51.962;5.974;2023-03-19T12:32:17;101286.00;;;19.07;100.00
59757;BME280;45631;51.962;5.974;2023-03-19T12:34:51;101286.47;;;18.73;100.00
59757;BME280;45631;51.962;5.974;2023-03-19T12:37:26;101286.19;;;18.96;100.00
59757;BME280;45631;51.962;5.974;2023-03-19T12:40:11;101277.22;;;18.97;100.00
59757;BME280;45631;51.962;5.974;2023-03-19T12:42:44;101279.53;;;19.47;100.00
59757;BME280;45631;51.962;5.974;2023-03-19T12:45:27;101292.81;;;19.57;99.80
59757;BME280;45631;51.962;5.974;2023-03-19T12:48:02;101296.31;;;18.53;100.00
59757;BME280;45631;51.962;5.974;2023-03-19T12:50:37;101294.34;;;18.55;100.00
59757;BME280;45631;51.962;5.974;2023-03-19T12:53:10;101289.06;;;19.12;100.00
59757;BME280;45631;51.962;5.974;2023-03-19T12:55:49;101292.06;;;18.80;100.00
59757;BME280;45631;51.962;5.974;2023-03-19T12:58:24;101288.19;;;19.21;95.60
59757;BME280;45631;51.962;5.974;2023-03-19T13:01:01;101290.88;;;19.87;94.25
59757;BME280;45631;51.962;5.974;2023-03-19T13:03:39;101299.84;;;19.20;96.85
59757;BME280;45631;51.962;5.974;2023-03-19T13:06:16;101295.38;;;19.49;96.88
59757;BME280;45631;51.962;5.974;2023-03-19T13:08:49;101291.09;;;19.38;96.37